Bezoek onze andere website:

Template documentation
and downloads

And another site



METAR rapporten vliegvelden

   
EBAW - Antwerp
Gewijzigd: 13-11-2018 01:20
Helder  
Helder  
   Wind: Zuiden 11.1 km/h
Wind: Zuiden 11.1 km/h
Temperatuur: 10°C
Voelt als: 8°C
Dauwpunt: 5°C
Vochtigheid: 71%
Barometer: 1018 hPa
Zicht: meer dan 10 km
Bewolking: Helder
EBAW 130020Z AUTO 18006KT CAVOK 10/05 Q1018
EBLG - Li├Ęge
Gewijzigd: 13-11-2018 01:20
Helder  
Helder  
   Wind: Zuiden 14.8 km/h
Wind: Zuiden 14.8 km/h
Temperatuur: 9°C
Voelt als: 7°C
Dauwpunt: 8°C
Vochtigheid: 94%
Barometer: 1019 hPa
Zicht: meer dan 10 km
Bewolking: Helder
EBLG 130020Z 19008KT CAVOK 09/08 Q1019 NOSIG
EBCV - Mons/Bergen
Gewijzigd: 13-11-2018 01:33
Grotendeels bewolkt  
Grotendeels bewolkt  
   Wind: Zuiden 18.5 km/h
Wind: Zuiden 18.5 km/h
Temperatuur: 10°C
Voelt als: 8°C
Dauwpunt: 9°C
Vochtigheid: 94%
Barometer: 1019 hPa
Bewolking: Grotendeels bewolkt
Zicht: 7 km
Bewolking: Gedeeltelijk bewolkt 5900 ft,
Grotendeels bewolkt 18000 ft
EBCV 130033Z AUTO 19010KT 7000 SCT059/// BKN180/// 10/09 Q1019 WHT
EHBK - Maastricht
Gewijzigd: 13-11-2018 01:25
Gedeeltelijk bewolkt  
Gedeeltelijk bewolkt  
   Wind: Zuiden 16.7 km/h
Wind: Zuiden 16.7 km/h
Temperatuur: 10°C
Voelt als: 8°C
Dauwpunt: 8°C
Vochtigheid: 88%
Barometer: 1018 hPa
Bewolking: Gedeeltelijk bewolkt
Zicht: meer dan 10 km
Bewolking: Gedeeltelijk bewolkt
EHBK 130025Z AUTO 19009KT 9999 NSC 10/08 Q1018
ELLX - Luxemburg
Gewijzigd: 13-11-2018 01:20
Wat regen mogelijk, Grotendeels bewolkt  
Wat regen mogelijk, Grotendeels bewolkt  
   Wind: ZZW 9.3 km/h
Wind: ZZW 9.3 km/h
Temperatuur: 9°C
Voelt als: 8°C
Dauwpunt: 9°C
Vochtigheid: 100%
Barometer: 1021 hPa
Bewolking: Grotendeels bewolkt
Zicht: 4 km
Bewolking: Licht bewolkt 300 ft,
Grotendeels bewolkt 500 ft,
Grotendeels bewolkt 700 ft
ELLX 130020Z AUTO 21005KT 3600 -RA FEW003/// BKN005/// BKN007/// 09/09 Q1021 NOSIG
EBOS - Oostende
Gewijzigd: 13-11-2018 01:20
Licht bewolkt  
Licht bewolkt  
   Wind: Zuiden 20.4 km/h
Wind: Zuiden 20.4 km/h
Temperatuur: 9°C
Voelt als: 6°C
Dauwpunt: 7°C
Vochtigheid: 87%
Barometer: 1017 hPa
Bewolking: Licht bewolkt
Zicht: meer dan 10 km
Bewolking: Licht bewolkt 2500 ft
EBOS 130020Z 18011KT 9999 FEW025 09/07 Q1017 NOSIG

Script ontwikkeld door  Saratoga-weather.org Aangepast voor de template door  Weerstation Leuven